Goddard, Iowa
Current Conditions -  °F | °C
As of 3:35 PM on Monday 24 Nov 2014 (Local Time) from KTNU Reporting Station
Overcast Overcast  
Wind Chill: 13°   Ceiling: 2500
Heat Index: 27°   Visibility: 10mi
Dew Point: 19°   Wind: 21mph
Humidity: 74%   Direction: 290°WNW
Pressure: 29.72"   Gusts: 29mph
Location:  41.6475°N, 93.2926°W
Report Text: KTNU 242135Z AUTO 29018G25KT 10SM OVC025 M03/M07 A2972 RMK AO2
Loading
Personal Weather Stations






























Interactive Weather Map New forecast layout! Learn more

10-Day Weather Forecast

Advertisements
Track Severe Weather on mobile